Time;durP1;ratioP1;P1;durP2;ratioP2;P2;SDS_P1;SDS_P2;PMS_P1;PMS_P2;Temp;Humidity;BMP_temperature;BMP_pressure;BME280_temperature;BME280_humidity;BME280_pressure;Samples;Min_cycle;Max_cycle;Signal;HPM_P1;HPM_P2
2024/01/28 00:00:03;;;;;;;;;;;;;;;17.51;43.33;101405.25;10329559;28;1910;-68
2024/01/28 00:04:59;;;;;;;;;;;;;;;17.50;43.25;101392.94;10329026;28;864;-68
2024/01/28 00:09:55;;;;;;;;;;;;;;;17.50;43.25;101383.28;10327921;28;900;-69
2024/01/28 00:14:51;;;;;;;;;;;;;;;17.50;43.10;101379.75;10328516;28;936;-69
2024/01/28 00:19:47;;;;;;;;;;;;;;;17.48;43.21;101368.41;10328510;28;1957;-69
2024/01/28 00:24:42;;;;;;;;;;;;;;;17.47;43.25;101362.22;10327304;28;1154;-68
2024/01/28 00:29:38;;;;;;;;;;;;;;;17.46;43.24;101359.63;10328117;28;845;-69
2024/01/28 00:34:34;;;;;;;;;;;;;;;17.46;43.37;101354.38;10328201;28;873;-69
2024/01/28 00:39:30;;;;;;;;;;;;;;;17.45;43.29;101339.47;10327242;28;1921;-67
2024/01/28 00:44:26;;;;;;;;;;;;;;;17.45;43.12;101342.09;10328051;28;859;-67
2024/01/28 00:49:29;;;;;;;;;;;;;;;17.43;43.18;101338.59;10326676;28;922;-68
2024/01/28 00:54:24;;;;;;;;;;;;;;;17.42;43.14;101331.56;10328065;28;921;-68
2024/01/28 00:59:20;;;;;;;;;;;;;;;17.41;43.32;101321.94;10326894;28;1965;-68
2024/01/28 01:04:16;;;;;;;;;;;;;;;17.40;43.43;101325.47;10326766;28;879;-68
2024/01/28 01:09:12;;;;;;;;;;;;;;;17.39;43.42;101323.72;10326561;28;846;-68
2024/01/28 01:14:08;;;;;;;;;;;;;;;17.38;43.35;101308.81;10327398;28;811;-68
2024/01/28 01:19:04;;;;;;;;;;;;;;;17.37;43.37;101312.31;10326148;28;1901;-68
2024/01/28 01:24:01;;;;;;;;;;;;;;;17.36;43.42;101311.47;10326142;28;862;-68
2024/01/28 01:28:57;;;;;;;;;;;;;;;17.35;43.44;101325.53;10326130;28;1069;-68
2024/01/28 01:33:53;;;;;;;;;;;;;;;17.35;43.18;101324.69;10325985;28;830;-68
2024/01/28 01:38:49;;;;;;;;;;;;;;;17.33;43.20;101323.81;10325069;28;1910;-68
2024/01/28 01:43:45;;;;;;;;;;;;;;;17.32;43.31;101325.59;10326190;28;925;-68
2024/01/28 01:48:41;;;;;;;;;;;;;;;17.33;43.24;101318.56;10325532;28;941;-68
2024/01/28 01:53:36;;;;;;;;;;;;;;;17.30;43.21;101298.41;10325791;28;877;-68
2024/01/28 01:58:32;;;;;;;;;;;;;;;17.29;43.23;101300.16;10325395;28;1901;-68
2024/01/28 02:03:28;;;;;;;;;;;;;;;17.28;43.30;101300.19;10326080;28;932;-67
2024/01/28 02:08:24;;;;;;;;;;;;;;;17.28;43.14;101306.31;10326263;28;854;-68
2024/01/28 02:13:20;;;;;;;;;;;;;;;17.27;43.28;101295.81;10325069;28;874;-68
2024/01/28 02:18:16;;;;;;;;;;;;;;;17.28;43.15;101301.03;10324852;28;1902;-68
2024/01/28 02:23:13;;;;;;;;;;;;;;;17.27;43.17;101301.94;10324963;28;924;-68
2024/01/28 02:28:09;;;;;;;;;;;;;;;17.27;43.09;101301.09;10324652;28;1326;-68
2024/01/28 02:33:05;;;;;;;;;;;;;;;17.26;43.24;101300.19;10324784;28;888;-68
2024/01/28 02:38:01;;;;;;;;;;;;;;;17.25;43.30;101285.28;10325203;28;1978;-68
2024/01/28 02:42:57;;;;;;;;;;;;;;;17.25;43.24;101272.09;10323804;28;1032;-68
2024/01/28 02:47:52;;;;;;;;;;;;;;;17.23;43.21;101260.72;10324296;28;810;-69
2024/01/28 02:52:48;;;;;;;;;;;;;;;17.23;43.05;101250.19;10324269;28;774;-68
2024/01/28 02:57:44;;;;;;;;;;;;;;;17.22;43.08;101244.94;10324684;28;1951;-67
2024/01/28 03:02:40;;;;;;;;;;;;;;;17.22;43.10;101237.91;10328032;28;808;-67
2024/01/28 03:07:36;;;;;;;;;;;;;;;17.20;43.26;101231.78;10331332;28;925;-68
2024/01/28 03:12:32;;;;;;;;;;;;;;;17.20;42.99;101228.28;10331167;28;783;-68
2024/01/28 03:17:28;;;;;;;;;;;;;;;17.18;43.05;101222.16;10331481;28;1952;-67
2024/01/28 03:22:24;;;;;;;;;;;;;;;17.14;43.20;101212.59;10330188;28;1105;-68
2024/01/28 03:27:20;;;;;;;;;;;;;;;17.12;42.95;101217.88;10331066;28;1101;-67
2024/01/28 03:32:15;;;;;;;;;;;;;;;17.10;42.88;101227.56;10331309;28;834;-68
2024/01/28 03:37:11;;;;;;;;;;;;;;;17.07;42.73;101230.25;10330149;28;1917;-69
2024/01/28 03:42:07;;;;;;;;;;;;;;;17.04;43.01;101239.09;10330688;28;867;-68
2024/01/28 03:47:03;;;;;;;;;;;;;;;17.03;42.88;101234.72;10329937;28;922;-68
2024/01/28 03:51:59;;;;;;;;;;;;;;;17.01;42.86;101225.09;10329700;28;950;-68
2024/01/28 03:56:55;;;;;;;;;;;;;;;17.02;43.00;101227.69;10329526;28;964;-68
2024/01/28 04:01:51;;;;;;;;;;;;;;;17.01;42.95;101219.84;10329832;28;1898;-68
2024/01/28 04:06:47;;;;;;;;;;;;;;;17.01;43.01;101209.31;10329165;28;865;-68
2024/01/28 04:11:43;;;;;;;;;;;;;;;17.00;43.24;101215.44;10328709;28;782;-69
2024/01/28 04:16:39;;;;;;;;;;;;;;;17.01;43.11;101211.94;10328185;28;981;-68
2024/01/28 04:21:35;;;;;;;;;;;;;;;17.01;43.18;101209.31;10311164;28;1925;-68
2024/01/28 04:26:31;;;;;;;;;;;;;;;16.99;43.12;101193.50;10328873;28;1132;-68
2024/01/28 04:31:27;;;;;;;;;;;;;;;17.02;42.95;101189.94;10328125;28;954;-68
2024/01/28 04:36:26;;;;;;;;;;;;;;;17.02;42.90;101189.94;10327841;28;965;-69
2024/01/28 04:41:21;;;;;;;;;;;;;;;17.04;42.81;101182.91;10328203;28;1914;-68
2024/01/28 04:46:17;;;;;;;;;;;;;;;17.06;42.77;101175.84;10327423;28;818;-69
2024/01/28 04:51:13;;;;;;;;;;;;;;;17.07;42.85;101186.34;10327238;28;898;-68
2024/01/28 04:56:09;;;;;;;;;;;;;;;17.09;43.03;101181.06;10326869;28;862;-68
2024/01/28 05:01:05;;;;;;;;;;;;;;;17.11;42.69;101173.09;10326883;28;1894;-68
2024/01/28 05:06:04;;;;;;;;;;;;;;;17.11;42.76;101168.72;10327331;28;810;-68
2024/01/28 05:11:00;;;;;;;;;;;;;;;17.14;42.73;101162.53;10326493;28;924;-68
2024/01/28 05:15:56;;;;;;;;;;;;;;;17.15;42.64;101141.41;10327025;28;932;-68
2024/01/28 05:20:52;;;;;;;;;;;;;;;17.16;42.75;101145.81;10326155;28;1932;-68
2024/01/28 05:25:48;;;;;;;;;;;;;;;17.16;42.73;101132.63;10324993;28;1101;-68
2024/01/28 05:30:44;;;;;;;;;;;;;;;17.17;42.84;101122.97;10325363;28;1056;-68
2024/01/28 05:35:40;;;;;;;;;;;;;;;17.19;42.50;101124.66;10325894;28;838;-68
2024/01/28 05:40:35;;;;;;;;;;;;;;;17.18;42.70;101114.16;10325102;28;1965;-68
2024/01/28 05:45:31;;;;;;;;;;;;;;;17.20;42.62;101121.13;10325656;28;778;-68
2024/01/28 05:50:27;;;;;;;;;;;;;;;17.21;42.72;101114.09;10325540;28;803;-68
2024/01/28 05:55:23;;;;;;;;;;;;;;;17.19;42.62;101106.22;10325446;28;885;-68
2024/01/28 06:00:19;;;;;;;;;;;;;;;17.23;42.53;101099.13;10325854;28;1951;-69
2024/01/28 06:05:15;;;;;;;;;;;;;;;17.23;42.75;101099.97;10325355;28;958;-69
2024/01/28 06:10:11;;;;;;;;;;;;;;;17.25;42.76;101103.47;10324560;28;814;-69
2024/01/28 06:15:08;;;;;;;;;;;;;;;17.26;42.68;101099.06;10325061;28;857;-71
2024/01/28 06:20:06;;;;;;;;;;;;;;;17.28;42.70;101095.50;10325497;28;1956;-70
2024/01/28 06:25:02;;;;;;;;;;;;;;;17.29;42.71;101089.34;10325213;28;1508;-75
2024/01/28 06:29:58;;;;;;;;;;;;;;;17.30;42.81;101088.44;10324666;28;930;-68
2024/01/28 06:34:54;;;;;;;;;;;;;;;17.32;42.72;101083.13;10324120;28;842;-71
2024/01/28 06:39:51;;;;;;;;;;;;;;;17.31;42.87;101081.38;10332137;28;1913;-69
2024/01/28 06:44:47;;;;;;;;;;;;;;;17.34;42.82;101093.63;10332821;28;870;-69
2024/01/28 06:49:43;;;;;;;;;;;;;;;17.33;42.92;101090.13;10332660;28;826;-68
2024/01/28 06:54:41;;;;;;;;;;;;;;;17.35;42.87;101084.84;10332491;28;889;-69
2024/01/28 06:59:36;;;;;;;;;;;;;;;17.34;42.74;101089.22;10331589;28;1894;-69
2024/01/28 07:04:32;;;;;;;;;;;;;;;17.35;42.82;101096.25;10332165;28;868;-69
2024/01/28 07:09:28;;;;;;;;;;;;;;;17.36;42.95;101094.47;10330686;28;1183;-70
2024/01/28 07:14:24;;;;;;;;;;;;;;;17.38;42.87;101096.19;10331774;28;774;-69
2024/01/28 07:19:20;;;;;;;;;;;;;;;17.39;43.06;101097.91;10330833;28;1951;-69
2024/01/28 07:24:16;;;;;;;;;;;;;;;17.40;42.88;101096.16;10330733;28;1016;-69
2024/01/28 07:29:12;;;;;;;;;;;;;;;17.40;42.98;101088.25;10330163;28;1298;-69
2024/01/28 07:34:08;;;;;;;;;;;;;;;17.40;42.86;101086.47;10331107;28;810;-69
2024/01/28 07:39:06;;;;;;;;;;;;;;;17.40;42.82;101085.63;10330777;28;1973;-69
2024/01/28 07:44:02;;;;;;;;;;;;;;;17.42;43.06;101083.81;10330141;28;883;-69
2024/01/28 07:48:58;;;;;;;;;;;;;;;17.43;42.72;101075.88;10328758;28;803;-68
2024/01/28 07:53:54;;;;;;;;;;;;;;;17.41;42.81;101076.81;10330297;28;835;-72
2024/01/28 07:58:50;;;;;;;;;;;;;;;17.42;42.94;101075.88;10330061;28;1906;-69
2024/01/28 08:03:46;;;;;;;;;;;;;;;17.43;42.97;101069.75;10329892;28;908;-69
2024/01/28 08:08:41;;;;;;;;;;;;;;;17.44;42.92;101076.75;10329143;28;777;-69
2024/01/28 08:13:37;;;;;;;;;;;;;;;17.43;43.12;101072.38;10328314;28;1195;-69
2024/01/28 08:18:33;;;;;;;;;;;;;;;17.43;42.97;101075.88;10328054;28;1898;-70
2024/01/28 08:23:29;;;;;;;;;;;;;;;17.44;43.05;101071.47;10328458;28;772;-70
2024/01/28 08:28:25;;;;;;;;;;;;;;;17.46;43.06;101061.75;10328814;28;1317;-71
2024/01/28 08:33:21;;;;;;;;;;;;;;;17.48;42.90;101068.75;10328050;28;1004;-77
2024/01/28 08:38:17;;;;;;;;;;;;;;;17.48;43.25;101068.75;10327788;28;1914;-80
2024/01/28 08:43:13;;;;;;;;;;;;;;;17.50;43.27;101063.41;10327682;28;774;-78
2024/01/28 08:48:09;;;;;;;;;;;;;;;17.50;43.13;101051.13;10328059;28;902;-77
2024/01/28 08:53:05;;;;;;;;;;;;;;;17.50;43.28;101050.22;10328514;28;861;-74
2024/01/28 08:58:01;;;;;;;;;;;;;;;17.51;43.31;101049.34;10327742;28;1898;-74
2024/01/28 09:02:57;;;;;;;;;;;;;;;17.52;43.37;101053.72;10327140;28;867;-75
2024/01/28 09:07:52;;;;;;;;;;;;;;;17.50;43.29;101040.59;10326731;28;885;-74
2024/01/28 09:12:48;;;;;;;;;;;;;;;17.55;43.00;101042.25;10326110;28;1063;-70
2024/01/28 09:17:44;;;;;;;;;;;;;;;17.56;43.19;101036.09;10326341;28;1949;-72
2024/01/28 09:22:41;;;;;;;;;;;;;;;17.55;43.27;101032.56;10326293;28;794;-74
2024/01/28 09:27:37;;;;;;;;;;;;;;;17.57;43.36;101035.16;10326465;28;1198;-75
2024/01/28 09:32:32;;;;;;;;;;;;;;;17.56;43.37;101026.41;10325901;28;785;-78
2024/01/28 09:37:28;;;;;;;;;;;;;;;17.56;43.19;101013.22;10326841;28;1918;-72
2024/01/28 09:42:24;;;;;;;;;;;;;;;17.58;43.30;101018.44;10324985;28;876;-77
2024/01/28 09:47:20;;;;;;;;;;;;;;;17.58;43.29;101011.41;10325401;28;846;-76
2024/01/28 09:52:16;;;;;;;;;;;;;;;17.57;43.14;101009.66;10325934;28;956;-72
2024/01/28 09:57:12;;;;;;;;;;;;;;;17.57;43.23;101012.31;10325091;28;877;-72
2024/01/28 10:02:08;;;;;;;;;;;;;;;17.58;42.91;101007.88;10324980;28;1914;-72
2024/01/28 10:07:04;;;;;;;;;;;;;;;17.58;43.01;101011.41;10324168;28;1236;-72
2024/01/28 10:12:00;;;;;;;;;;;;;;;17.59;42.84;101007.00;10328279;28;802;-71
2024/01/28 10:16:56;;;;;;;;;;;;;;;17.59;42.81;101007.88;10333213;28;831;-71
2024/01/28 10:21:52;;;;;;;;;;;;;;;17.60;42.97;100999.03;10333622;28;1902;-72
2024/01/28 10:26:48;;;;;;;;;;;;;;;17.60;42.83;100998.19;10333946;28;1344;-71
2024/01/28 10:31:44;;;;;;;;;;;;;;;17.60;42.80;100999.03;10332627;28;809;-71
2024/01/28 10:36:40;;;;;;;;;;;;;;;17.61;42.75;100997.31;10332368;28;810;-72
2024/01/28 10:41:35;;;;;;;;;;;;;;;17.62;42.95;100989.34;10332207;28;1906;-71
2024/01/28 10:46:32;;;;;;;;;;;;;;;17.62;42.78;100989.34;10331833;28;977;-71
2024/01/28 10:51:28;;;;;;;;;;;;;;;17.63;42.72;100991.09;10332824;28;873;-71
2024/01/28 10:56:24;;;;;;;;;;;;;;;17.61;42.82;100978.84;10331044;28;897;-77
2024/01/28 11:01:19;;;;;;;;;;;;;;;17.62;42.54;100965.63;10331686;28;1893;-70
2024/01/28 11:06:16;;;;;;;;;;;;;;;17.65;42.80;100956.75;10330723;28;1083;-71
2024/01/28 11:11:12;;;;;;;;;;;;;;;17.64;42.80;100957.69;10331636;28;870;-78
2024/01/28 11:16:08;;;;;;;;;;;;;;;17.65;42.49;100946.22;10332314;28;1642;-71
2024/01/28 11:21:04;;;;;;;;;;;;;;;17.65;42.91;100939.16;10330835;28;1943;-70
2024/01/28 11:26:00;;;;;;;;;;;;;;;17.65;42.86;100936.53;10330356;28;1171;-73
2024/01/28 11:30:57;;;;;;;;;;;;;;;17.67;42.84;100941.78;10330395;28;762;-70
2024/01/28 11:35:54;;;;;;;;;;;;;;;17.65;43.01;100940.94;10330194;28;1069;-70
2024/01/28 11:40:49;;;;;;;;;;;;;;;17.66;42.93;100935.66;10330006;28;1918;-71
2024/01/28 11:45:45;;;;;;;;;;;;;;;17.67;42.92;100939.16;10330496;28;834;-72
2024/01/28 11:50:43;;;;;;;;;;;;;;;17.67;42.83;100942.63;10330276;28;806;-72
2024/01/28 11:55:39;;;;;;;;;;;;;;;17.67;42.67;100936.50;10329463;28;942;-71
2024/01/28 12:00:34;;;;;;;;;;;;;;;17.69;42.78;100930.28;10329829;28;1910;-72
2024/01/28 12:05:30;;;;;;;;;;;;;;;17.69;42.89;100925.03;10328944;28;937;-73
2024/01/28 12:10:26;;;;;;;;;;;;;;;17.73;42.87;100923.16;10329537;28;853;-77
2024/01/28 12:15:22;;;;;;;;;;;;;;;17.74;43.03;100920.50;10328451;28;917;-71
2024/01/28 12:20:18;;;;;;;;;;;;;;;17.77;42.84;100913.44;10328324;28;1894;-70
2024/01/28 12:25:14;;;;;;;;;;;;;;;17.77;42.93;100910.78;10328689;28;1165;-77
2024/01/28 12:30:10;;;;;;;;;;;;;;;17.75;42.65;100909.03;10328666;28;913;-78
2024/01/28 12:35:07;;;;;;;;;;;;;;;17.75;42.57;100901.13;10327206;28;885;-72
2024/01/28 12:40:03;;;;;;;;;;;;;;;17.80;42.38;100892.28;10327575;28;1922;-74
2024/01/28 12:44:58;;;;;;;;;;;;;;;17.87;42.28;100884.19;10328112;28;828;-77
2024/01/28 12:49:54;;;;;;;;;;;;;;;17.92;42.36;100884.03;10326665;28;870;-74
2024/01/28 12:54:50;;;;;;;;;;;;;;;17.98;42.41;100869.84;10327660;28;921;-74
2024/01/28 12:59:46;;;;;;;;;;;;;;;18.03;42.69;100867.97;10326852;28;1961;-78
2024/01/28 13:04:42;;;;;;;;;;;;;;;18.11;42.51;100873.91;10326605;28;944;-75
2024/01/28 13:09:38;;;;;;;;;;;;;;;18.15;42.56;100871.09;10326532;28;806;-74
2024/01/28 13:14:34;;;;;;;;;;;;;;;18.24;42.54;100870.03;10326347;28;964;-71
2024/01/28 13:19:30;;;;;;;;;;;;;;;18.27;42.47;100862.00;10325561;28;1967;-71
2024/01/28 13:24:25;;;;;;;;;;;;;;;18.33;42.37;100853.06;10326070;28;919;-71
2024/01/28 13:29:22;;;;;;;;;;;;;;;18.37;42.32;100855.56;10325716;28;1334;-75
2024/01/28 13:34:19;;;;;;;;;;;;;;;18.45;42.33;100852.72;10325651;28;846;-78
2024/01/28 13:39:15;;;;;;;;;;;;;;;18.49;42.16;100853.47;10325561;28;1980;-73
2024/01/28 13:44:11;;;;;;;;;;;;;;;18.53;42.03;100844.56;10326295;28;883;-73
2024/01/28 13:49:07;;;;;;;;;;;;;;;18.57;41.88;100839.13;10325335;28;830;-73
2024/01/28 13:54:03;;;;;;;;;;;;;;;18.62;41.65;100825.81;10325891;28;909;-73
2024/01/28 13:58:59;;;;;;;;;;;;;;;18.70;42.00;100820.31;10325607;28;1947;-73
2024/01/28 14:03:55;;;;;;;;;;;;;;;18.71;41.92;100811.50;10324984;28;879;-73
2024/01/28 14:08:51;;;;;;;;;;;;;;;18.71;41.80;100806.22;10324870;28;831;-73
2024/01/28 14:13:50;;;;;;;;;;;;;;;18.67;41.89;100808.06;10324867;28;1087;-73
2024/01/28 14:18:46;;;;;;;;;;;;;;;18.58;42.02;100801.28;10324293;28;1894;-75
2024/01/28 14:23:41;;;;;;;;;;;;;;;18.52;42.12;100800.59;10324886;28;942;-78
2024/01/28 14:28:37;;;;;;;;;;;;;;;18.48;42.20;100798.97;10325553;28;1164;-71
2024/01/28 14:33:33;;;;;;;;;;;;;;;18.43;42.06;100787.66;10325338;28;901;-70
2024/01/28 14:38:29;;;;;;;;;;;;;;;18.38;42.06;100783.38;10324746;28;1914;-71
2024/01/28 14:43:25;;;;;;;;;;;;;;;18.40;41.98;100791.25;10325097;28;813;-72
2024/01/28 14:48:23;;;;;;;;;;;;;;;18.46;42.02;100796.34;10324447;28;822;-72
2024/01/28 14:53:19;;;;;;;;;;;;;;;18.53;42.02;100787.34;10324266;28;978;-72
2024/01/28 14:58:15;;;;;;;;;;;;;;;18.62;41.66;100787.06;10327866;28;1956;-72
2024/01/28 15:03:11;;;;;;;;;;;;;;;18.72;41.47;100777.09;10331707;28;948;-71
2024/01/28 15:08:07;;;;;;;;;;;;;;;18.81;41.30;100770.69;10331881;28;836;-72
2024/01/28 15:13:03;;;;;;;;;;;;;;;18.79;41.55;100772.53;10331878;28;898;-74
2024/01/28 15:17:59;;;;;;;;;;;;;;;18.73;41.57;100770.91;10331399;28;1960;-76
2024/01/28 15:22:55;;;;;;;;;;;;;;;18.61;41.98;100773.91;10331763;28;857;-72
2024/01/28 15:27:51;;;;;;;;;;;;;;;18.46;42.12;100769.97;10330648;28;1525;-71
2024/01/28 15:32:47;;;;;;;;;;;;;;;18.40;42.19;100767.50;10330958;28;860;-72
2024/01/28 15:37:43;;;;;;;;;;;;;;;18.36;42.48;100765.84;10330419;28;1917;-71
2024/01/28 15:42:39;;;;;;;;;;;;;;;18.34;42.39;100762.41;10330895;28;1000;-71
2024/01/28 15:47:38;;;;;;;;;;;;;;;18.31;42.40;100766.00;10330626;28;782;-71
2024/01/28 15:52:34;;;;;;;;;;;;;;;18.27;42.39;100751.16;10330389;28;969;-72
2024/01/28 15:57:30;;;;;;;;;;;;;;;18.27;42.50;100758.22;10329053;28;1236;-79
2024/01/28 16:02:26;;;;;;;;;;;;;;;18.25;42.35;100754.75;10329446;28;1957;-73
2024/01/28 16:07:22;;;;;;;;;;;;;;;18.22;42.69;100754.84;10329228;28;942;-73
2024/01/28 16:12:18;;;;;;;;;;;;;;;18.20;42.66;100760.16;10328915;28;842;-73
2024/01/28 16:17:18;;;;;;;;;;;;;;;18.18;42.57;100752.31;10329512;28;918;-73
2024/01/28 16:22:13;;;;;;;;;;;;;;;18.17;42.78;100753.19;10328563;28;1890;-73
2024/01/28 16:27:09;;;;;;;;;;;;;;;18.16;42.44;100740.94;10328876;28;1129;-73
2024/01/28 16:32:05;;;;;;;;;;;;;;;18.17;42.54;100742.63;10328245;28;855;-74
2024/01/28 16:37:01;;;;;;;;;;;;;;;18.14;42.47;100747.16;10328074;28;823;-73
2024/01/28 16:41:57;;;;;;;;;;;;;;;18.11;42.59;100741.97;10327758;28;1956;-73
2024/01/28 16:46:53;;;;;;;;;;;;;;;18.08;42.67;100748.19;10328264;28;783;-72
2024/01/28 16:51:49;;;;;;;;;;;;;;;18.07;42.53;100745.59;10328145;28;846;-73
2024/01/28 16:56:45;;;;;;;;;;;;;;;18.07;42.83;100738.53;10327933;28;904;-77
2024/01/28 17:01:42;;;;;;;;;;;;;;;18.00;42.71;100729.09;10327044;28;1882;-79
2024/01/28 17:06:39;;;;;;;;;;;;;;;17.98;42.74;100728.25;10327515;28;914;-75
2024/01/28 17:11:34;;;;;;;;;;;;;;;17.95;42.69;100725.72;10327297;28;859;-73
2024/01/28 17:16:30;;;;;;;;;;;;;;;17.95;42.76;100723.09;10327168;28;912;-77
2024/01/28 17:21:28;;;;;;;;;;;;;;;17.93;42.78;100731.03;10326227;28;1890;-74
2024/01/28 17:26:24;;;;;;;;;;;;;;;17.92;42.55;100725.78;10325872;28;1257;-75
2024/01/28 17:31:20;;;;;;;;;;;;;;;17.90;42.51;100720.56;10326573;28;810;-75
2024/01/28 17:36:16;;;;;;;;;;;;;;;17.91;42.80;100726.69;10325098;28;964;-76
2024/01/28 17:41:12;;;;;;;;;;;;;;;17.90;42.59;100714.44;10326054;28;1914;-74
2024/01/28 17:46:08;;;;;;;;;;;;;;;17.90;42.69;100723.19;10325749;28;975;-74
2024/01/28 17:51:04;;;;;;;;;;;;;;;17.90;42.70;100719.72;10325396;28;858;-75
2024/01/28 17:56:00;;;;;;;;;;;;;;;17.88;42.46;100710.97;10325266;28;867;-75
2024/01/28 18:00:56;;;;;;;;;;;;;;;17.89;42.63;100715.31;10325284;28;1889;-76
2024/01/28 18:05:52;;;;;;;;;;;;;;;17.87;42.62;100707.47;10307046;28;835;-76
2024/01/28 18:10:48;;;;;;;;;;;;;;;17.88;42.59;100705.69;10325145;28;864;-74
2024/01/28 18:15:44;;;;;;;;;;;;;;;17.89;42.52;100702.13;10325485;28;863;-74
2024/01/28 18:20:40;;;;;;;;;;;;;;;17.93;42.62;100704.66;10306838;28;1914;-71
2024/01/28 18:25:39;;;;;;;;;;;;;;;17.96;42.64;100699.28;10324628;28;1384;-70
2024/01/28 18:30:35;;;;;;;;;;;;;;;17.99;42.79;100700.97;10324483;28;830;-70
2024/01/28 18:35:31;;;;;;;;;;;;;;;18.02;42.97;100700.00;10333434;28;851;-70
2024/01/28 18:40:27;;;;;;;;;;;;;;;18.04;43.01;100700.84;10332919;28;1906;-70
2024/01/28 18:45:23;;;;;;;;;;;;;;;18.07;43.10;100698.09;10332454;28;864;-70
2024/01/28 18:50:19;;;;;;;;;;;;;;;18.07;43.08;100692.81;10332082;28;777;-70
2024/01/28 18:55:15;;;;;;;;;;;;;;;18.09;43.05;100701.56;10332455;28;933;-70
2024/01/28 19:00:13;;;;;;;;;;;;;;;18.10;43.07;100709.44;10332167;28;1893;-70
2024/01/28 19:05:09;;;;;;;;;;;;;;;18.12;43.05;100715.53;10330846;28;946;-70
2024/01/28 19:10:05;;;;;;;;;;;;;;;18.11;43.03;100710.31;10331295;28;771;-70
2024/01/28 19:15:01;;;;;;;;;;;;;;;18.10;42.83;100704.19;10331706;28;851;-70
2024/01/28 19:19:58;;;;;;;;;;;;;;;18.11;43.04;100705.88;10330777;28;1886;-70
2024/01/28 19:24:53;;;;;;;;;;;;;;;18.14;43.04;100711.06;10330815;28;1132;-70
2024/01/28 19:29:49;;;;;;;;;;;;;;;18.13;43.01;100706.72;10330195;28;961;-71
2024/01/28 19:34:45;;;;;;;;;;;;;;;18.15;42.75;100694.31;10330403;28;938;-70
2024/01/28 19:39:41;;;;;;;;;;;;;;;18.17;42.84;100684.59;10330744;28;1909;-70
2024/01/28 19:44:37;;;;;;;;;;;;;;;18.15;42.90;100683.75;10328054;28;1063;-70
2024/01/28 19:49:33;;;;;;;;;;;;;;;18.17;42.80;100681.09;10329236;28;854;-70
2024/01/28 19:54:29;;;;;;;;;;;;;;;18.17;42.88;100674.03;10329703;28;759;-70
2024/01/28 19:59:24;;;;;;;;;;;;;;;18.18;42.95;100672.25;10329381;28;1899;-70
2024/01/28 20:04:20;;;;;;;;;;;;;;;18.18;42.85;100661.69;10329866;28;909;-70
2024/01/28 20:09:16;;;;;;;;;;;;;;;18.20;42.82;100657.25;10329100;28;981;-70
2024/01/28 20:14:12;;;;;;;;;;;;;;;18.19;42.65;100655.53;10328312;28;1063;-70
2024/01/28 20:19:08;;;;;;;;;;;;;;;18.18;42.89;100649.41;10328036;28;1898;-70
2024/01/28 20:24:04;;;;;;;;;;;;;;;18.17;42.77;100642.38;10328467;28;947;-70
2024/01/28 20:29:01;;;;;;;;;;;;;;;18.20;42.82;100653.75;10327451;28;1541;-70
2024/01/28 20:33:57;;;;;;;;;;;;;;;18.19;42.57;100650.25;10328019;28;898;-70
2024/01/28 20:38:52;;;;;;;;;;;;;;;18.20;42.66;100648.47;10327872;28;1914;-70
2024/01/28 20:43:48;;;;;;;;;;;;;;;18.16;42.71;100648.56;10327719;28;854;-70
2024/01/28 20:48:47;;;;;;;;;;;;;;;18.16;42.59;100653.84;10327350;28;771;-70
2024/01/28 20:53:43;;;;;;;;;;;;;;;18.16;42.77;100658.28;10327118;28;915;-69
2024/01/28 20:58:39;;;;;;;;;;;;;;;18.14;42.80;100655.66;10326051;28;1969;-70
2024/01/28 21:03:35;;;;;;;;;;;;;;;18.13;42.63;100643.41;10327654;28;798;-70
2024/01/28 21:08:31;;;;;;;;;;;;;;;18.12;42.59;100633.72;10326641;28;807;-70
2024/01/28 21:13:27;;;;;;;;;;;;;;;18.12;42.52;100633.72;10327151;28;807;-70
2024/01/28 21:18:23;;;;;;;;;;;;;;;18.12;42.73;100638.16;10327603;28;1894;-70
2024/01/28 21:23:18;;;;;;;;;;;;;;;18.10;42.51;100638.22;10325773;28;1040;-70
2024/01/28 21:28:16;;;;;;;;;;;;;;;18.08;42.67;100626.84;10325989;28;1286;-69
2024/01/28 21:33:12;;;;;;;;;;;;;;;18.07;42.84;100622.44;10326687;28;916;-70
2024/01/28 21:38:08;;;;;;;;;;;;;;;18.07;42.55;100611.03;10325904;28;1973;-69
2024/01/28 21:43:04;;;;;;;;;;;;;;;18.06;42.62;100618.09;10325825;28;833;-69
2024/01/28 21:47:59;;;;;;;;;;;;;;;18.05;42.62;100612.84;10327042;28;862;-69
2024/01/28 21:52:55;;;;;;;;;;;;;;;18.01;42.55;100604.19;10326213;28;849;-70
2024/01/28 21:57:51;;;;;;;;;;;;;;;18.00;42.35;100609.50;10326017;28;1894;-70
2024/01/28 22:02:47;;;;;;;;;;;;;;;17.98;42.48;100614.84;10325416;28;803;-69
2024/01/28 22:07:43;;;;;;;;;;;;;;;17.96;42.36;100620.16;10324465;28;759;-70
2024/01/28 22:12:39;;;;;;;;;;;;;;;17.94;42.37;100624.59;10324815;28;1088;-69
2024/01/28 22:17:35;;;;;;;;;;;;;;;17.93;42.16;100620.25;10325139;28;841;-70
2024/01/28 22:22:30;;;;;;;;;;;;;;;17.91;42.28;100614.13;10325081;28;1961;-69
2024/01/28 22:27:26;;;;;;;;;;;;;;;17.90;42.29;100622.13;10325116;28;1145;-69
2024/01/28 22:32:22;;;;;;;;;;;;;;;17.88;42.16;100629.19;10324859;28;857;-70
2024/01/28 22:37:18;;;;;;;;;;;;;;;17.86;42.34;100634.50;10326139;28;885;-69
2024/01/28 22:42:14;;;;;;;;;;;;;;;17.84;42.50;100630.19;10324763;28;1967;-69
2024/01/28 22:47:10;;;;;;;;;;;;;;;17.84;42.36;100643.38;10324726;28;928;-69
2024/01/28 22:52:06;;;;;;;;;;;;;;;17.83;42.58;100645.16;10325171;28;853;-69
2024/01/28 22:57:03;;;;;;;;;;;;;;;17.82;42.55;100639.94;10324382;28;875;-69
2024/01/28 23:01:58;;;;;;;;;;;;;;;17.80;42.37;100633.84;10324152;28;1897;-70
2024/01/28 23:06:54;;;;;;;;;;;;;;;17.79;42.50;100637.34;10324144;28;989;-70
2024/01/28 23:11:50;;;;;;;;;;;;;;;17.77;42.40;100639.19;10323531;28;875;-69
2024/01/28 23:16:46;;;;;;;;;;;;;;;17.75;42.39;100644.47;10324079;28;852;-69
2024/01/28 23:21:43;;;;;;;;;;;;;;;17.73;42.40;100644.50;10331302;28;1956;-69
2024/01/28 23:26:39;;;;;;;;;;;;;;;17.74;42.48;100637.50;10331183;28;1278;-69
2024/01/28 23:31:34;;;;;;;;;;;;;;;17.72;42.43;100632.25;10330945;28;933;-69
2024/01/28 23:36:30;;;;;;;;;;;;;;;17.72;42.50;100634.88;10331910;28;865;-70
2024/01/28 23:41:26;;;;;;;;;;;;;;;17.72;42.40;100626.97;10330383;28;1910;-69
2024/01/28 23:46:22;;;;;;;;;;;;;;;17.72;42.35;100628.75;10330297;28;996;-69
2024/01/28 23:51:18;;;;;;;;;;;;;;;17.70;42.28;100630.56;10330019;28;935;-70
2024/01/28 23:56:14;;;;;;;;;;;;;;;17.69;42.57;100621.81;10329888;28;953;-69
